Time;durP1;ratioP1;P1;durP2;ratioP2;P2;SDS_P1;SDS_P2;PMS_P1;PMS_P2;Temp;Humidity;BMP_temperature;BMP_pressure;BME280_temperature;BME280_humidity;BME280_pressure;Samples;Min_cycle;Max_cycle;Signal;HPM_P1;HPM_P2
2020/12/28 00:00:21;;;;;;;;;;;;;;;1.87;100.00;94637.31;5058551;28;19932;-79
2020/12/28 00:02:47;;;;;;;;;;;;;;;1.78;100.00;94640.16;5058327;28;19925;-79
2020/12/28 00:05:14;;;;;;;;;;;;;;;1.76;100.00;94632.38;5058629;28;19928;-78
2020/12/28 00:07:41;;;;;;;;;;;;;;;1.74;100.00;94634.09;5059414;28;20379;-78
2020/12/28 00:10:11;;;;;;;;;;;;;;;1.72;100.00;94631.03;5075784;28;19978;-78
2020/12/28 00:12:47;;;;;;;;;;;;;;;1.69;100.00;94632.75;5059393;28;20375;-81
2020/12/28 00:15:18;;;;;;;;;;;;;;;1.62;100.00;94630.34;5076135;28;19932;-80
2020/12/28 00:17:47;;;;;;;;;;;;;;;1.60;100.00;94630.09;5075601;28;20376;-80
2020/12/28 00:20:15;;;;;;;;;;;;;;;1.57;100.00;94633.78;5036817;28;19924;-81
2020/12/28 00:22:41;;;;;;;;;;;;;;;1.63;100.00;94818.94;5062992;28;20090;-81
2020/12/28 00:25:08;;;;;;;;;;;;;;;1.68;100.00;94825.78;5074809;28;19932;-81
2020/12/28 00:27:35;;;;;;;;;;;;;;;1.71;100.00;94828.34;5059141;28;19924;-81
2020/12/28 00:30:03;;;;;;;;;;;;;;;1.78;100.00;94833.53;5059218;28;19925;-80
2020/12/28 00:32:32;;;;;;;;;;;;;;;1.75;100.00;94831.72;5041746;28;19925;-81
2020/12/28 00:34:59;;;;;;;;;;;;;;;1.77;100.00;94837.50;5058105;28;19978;-81
2020/12/28 00:37:25;;;;;;;;;;;;;;;1.80;100.00;94839.31;5074551;28;20019;-80
2020/12/28 00:39:51;;;;;;;;;;;;;;;1.80;100.00;94853.06;5072584;28;19928;-81
2020/12/28 00:42:18;;;;;;;;;;;;;;;1.79;100.00;94857.06;5072676;28;19946;-81
2020/12/28 00:44:45;;;;;;;;;;;;;;;1.81;100.00;94865.63;5074408;28;20297;-81
2020/12/28 00:47:12;;;;;;;;;;;;;;;1.80;100.00;95505.28;5075005;28;20011;-81
2020/12/28 00:49:39;;;;;;;;;;;;;;;1.91;100.00;95507.63;5056052;28;20019;-81
2020/12/28 00:52:06;;;;;;;;;;;;;;;1.81;100.00;95497.78;5074270;28;19928;-81
2020/12/28 00:54:33;;;;;;;;;;;;;;;1.89;100.00;95494.31;5075170;28;19924;-81
2020/12/28 00:57:00;;;;;;;;;;;;;;;1.69;100.00;95474.66;5074275;28;19947;-81
2020/12/28 00:59:27;;;;;;;;;;;;;;;1.67;100.00;95477.09;5038882;28;19932;-80
2020/12/28 01:01:54;;;;;;;;;;;;;;;1.70;100.00;95473.44;5061184;28;19970;-81
2020/12/28 01:04:22;;;;;;;;;;;;;;;1.59;100.00;95473.06;5058534;28;19956;-80
2020/12/28 01:06:55;;;;;;;;;;;;;;;1.60;100.00;95476.59;5040662;28;19935;-80
2020/12/28 01:09:50;;;;;;;;;;;;;;;1.63;100.00;95478.44;5053663;28;19924;-81
2020/12/28 01:12:17;;;;;;;;;;;;;;;1.70;100.00;95476.19;5066819;28;20287;-80
2020/12/28 01:14:45;;;;;;;;;;;;;;;1.78;100.00;95488.47;5056820;28;19924;-80
2020/12/28 01:17:14;;;;;;;;;;;;;;;1.80;100.00;95486.00;5069100;28;19932;-81
2020/12/28 01:20:02;;;;;;;;;;;;;;;1.74;100.00;95474.06;5067139;28;19978;-80
2020/12/28 01:22:30;;;;;;;;;;;;;;;1.48;100.00;95452.69;5051018;28;20421;-80
2020/12/28 01:24:57;;;;;;;;;;;;;;;1.56;100.00;95453.97;5039473;28;20363;-81
2020/12/28 01:27:27;;;;;;;;;;;;;;;1.67;100.00;95477.09;5054349;28;19947;-80
2020/12/28 01:29:54;;;;;;;;;;;;;;;1.72;100.00;95472.97;5036387;28;20446;-81
2020/12/28 01:32:20;;;;;;;;;;;;;;;1.68;100.00;95473.09;5073130;28;20429;-80
2020/12/28 01:35:07;;;;;;;;;;;;;;;1.77;100.00;95478.66;5073176;28;19925;-80
2020/12/28 01:37:34;;;;;;;;;;;;;;;1.87;100.00;95479.47;5041080;28;19982;-80
2020/12/28 01:40:01;;;;;;;;;;;;;;;1.77;100.00;95481.41;5074160;28;20368;-81
2020/12/28 01:42:28;;;;;;;;;;;;;;;1.86;100.00;95481.44;5055778;28;19932;-81
2020/12/28 01:44:57;;;;;;;;;;;;;;;1.74;100.00;95482.31;5054297;28;19929;-80
2020/12/28 01:47:26;;;;;;;;;;;;;;;1.89;100.00;95488.78;5054469;28;20303;-81
2020/12/28 01:49:54;;;;;;;;;;;;;;;2.08;100.00;95486.13;5020206;28;20387;-80
2020/12/28 01:52:21;;;;;;;;;;;;;;;2.15;100.00;95488.59;5056466;28;20371;-81
2020/12/28 01:54:49;;;;;;;;;;;;;;;2.18;100.00;95484.94;5071313;28;20299;-81
2020/12/28 01:57:19;;;;;;;;;;;;;;;2.05;100.00;95467.75;5071335;28;19924;-81
2020/12/28 01:59:52;;;;;;;;;;;;;;;2.11;100.00;95479.69;5073292;28;20268;-81
2020/12/28 02:02:40;;;;;;;;;;;;;;;2.08;100.00;95475.09;5059539;28;19924;-81
2020/12/28 02:05:07;;;;;;;;;;;;;;;2.03;100.00;95468.19;5056167;28;20318;-81
2020/12/28 02:07:37;;;;;;;;;;;;;;;2.10;100.00;95470.69;5064407;28;19928;-81
2020/12/28 02:10:09;;;;;;;;;;;;;;;2.04;100.00;95463.47;5072708;28;19947;-81
2020/12/28 02:12:36;;;;;;;;;;;;;;;2.02;100.00;95460.41;5070717;28;19970;-81
2020/12/28 02:15:03;;;;;;;;;;;;;;;2.11;100.00;95460.44;5072676;28;19924;-81
2020/12/28 02:17:59;;;;;;;;;;;;;;;2.19;100.00;95456.16;5047329;28;19960;-81
2020/12/28 02:20:42;;;;;;;;;;;;;;;2.16;100.00;95454.34;5070916;28;19971;-81
2020/12/28 02:23:09;;;;;;;;;;;;;;;2.00;100.00;95438.81;5056020;28;19947;-81
2020/12/28 02:25:36;;;;;;;;;;;;;;;2.08;100.00;95444.81;5073291;28;19924;-81
2020/12/28 02:28:02;;;;;;;;;;;;;;;2.12;100.00;95442.69;5037176;28;19987;-81
2020/12/28 02:30:29;;;;;;;;;;;;;;;2.16;100.00;95446.06;5056418;28;19954;-81
2020/12/28 02:33:27;;;;;;;;;;;;;;;2.06;100.00;95439.00;5038711;28;19925;-81
2020/12/28 02:36:08;;;;;;;;;;;;;;;2.16;100.00;95435.06;5071991;28;20294;-81
2020/12/28 02:38:36;;;;;;;;;;;;;;;2.10;100.00;95429.38;5071056;28;20019;-81
2020/12/28 02:41:03;;;;;;;;;;;;;;;2.11;100.00;95413.63;5072295;28;19977;-81
2020/12/28 02:43:49;;;;;;;;;;;;;;;2.05;100.00;95401.66;5070431;28;19931;-81
2020/12/28 02:46:34;;;;;;;;;;;;;;;2.06;100.00;95400.47;5073112;28;20054;-81
2020/12/28 02:49:19;;;;;;;;;;;;;;;2.05;100.00;95402.44;5070347;28;19931;-81
2020/12/28 02:52:04;;;;;;;;;;;;;;;2.03;100.00;95399.38;5073323;28;20022;-80
2020/12/28 02:54:49;;;;;;;;;;;;;;;2.04;100.00;95389.13;5073017;28;19932;-81
2020/12/28 02:57:34;;;;;;;;;;;;;;;2.04;100.00;95383.63;5073317;28;19932;-81
2020/12/28 03:00:19;;;;;;;;;;;;;;;1.91;100.00;95369.97;5071973;28;19924;-81
2020/12/28 03:03:21;;;;;;;;;;;;;;;1.94;100.00;95363.56;4992003;28;20386;-81
2020/12/28 03:06:06;;;;;;;;;;;;;;;2.04;100.00;95362.38;4976898;28;20481;-81
2020/12/28 03:08:51;;;;;;;;;;;;;;;2.08;100.00;95356.72;4991595;28;19941;-81
2020/12/28 03:11:37;;;;;;;;;;;;;;;2.10;100.00;95348.75;4991048;28;19926;-81
2020/12/28 03:14:22;;;;;;;;;;;;;;;1.86;100.00;95352.09;4991469;28;19934;-81
2020/12/28 03:17:07;;;;;;;;;;;;;;;1.89;100.00;95340.16;4982267;28;19929;-81
2020/12/28 03:19:52;;;;;;;;;;;;;;;1.93;100.00;95345.53;4994710;28;19927;-81
2020/12/28 03:22:37;;;;;;;;;;;;;;;1.67;100.00;95342.25;4992857;28;19960;-81
2020/12/28 03:25:22;;;;;;;;;;;;;;;1.50;100.00;95338.22;4995180;28;20419;-81
2020/12/28 03:28:07;;;;;;;;;;;;;;;1.51;100.00;95345.28;5010232;28;19976;-82
2020/12/28 03:30:52;;;;;;;;;;;;;;;1.40;100.00;95335.91;5010838;28;19925;-81
2020/12/28 03:33:39;;;;;;;;;;;;;;;1.42;100.00;95338.97;4989443;28;19932;-81
2020/12/28 03:36:24;;;;;;;;;;;;;;;1.46;100.00;95340.34;4998807;28;19934;-81
2020/12/28 03:39:09;;;;;;;;;;;;;;;1.54;100.00;95347.13;5072659;28;19924;-80
2020/12/28 03:41:54;;;;;;;;;;;;;;;1.47;100.00;95354.88;5072498;28;19934;-80
2020/12/28 03:44:40;;;;;;;;;;;;;;;1.43;100.00;95357.78;5071689;28;19982;-80
2020/12/28 03:47:25;;;;;;;;;;;;;;;1.51;100.00;95363.75;5044181;28;19924;-81
2020/12/28 03:50:10;;;;;;;;;;;;;;;1.61;100.00;95362.56;5071580;28;19931;-81
2020/12/28 03:52:55;;;;;;;;;;;;;;;1.61;100.00;95363.34;5072255;28;20469;-80
2020/12/28 03:55:40;;;;;;;;;;;;;;;1.54;100.00;95358.13;5072182;28;19924;-81
2020/12/28 03:58:25;;;;;;;;;;;;;;;1.73;100.00;95361.69;5072431;28;19929;-81
2020/12/28 04:01:10;;;;;;;;;;;;;;;1.61;100.00;95357.06;5071921;28;19924;-80
2020/12/28 04:03:55;;;;;;;;;;;;;;;1.47;100.00;95346.63;5073006;28;19924;-81
2020/12/28 04:06:41;;;;;;;;;;;;;;;1.40;100.00;95349.66;5072132;28;19947;-81
2020/12/28 04:09:26;;;;;;;;;;;;;;;1.32;100.00;95356.63;5055343;28;19947;-80
2020/12/28 04:12:30;;;;;;;;;;;;;;;1.28;100.00;95367.78;5038809;28;20287;-80
2020/12/28 04:14:57;;;;;;;;;;;;;;;1.22;100.00;95374.31;5056088;28;19925;-80
2020/12/28 04:17:23;;;;;;;;;;;;;;;1.16;100.00;95368.66;5052914;28;19928;-80
2020/12/28 04:19:50;;;;;;;;;;;;;;;1.17;100.00;95366.66;5074985;28;19924;-81
2020/12/28 04:22:16;;;;;;;;;;;;;;;1.19;100.00;95370.50;5075700;28;19930;-81
2020/12/28 04:24:43;;;;;;;;;;;;;;;1.12;100.00;95373.50;5057808;28;20302;-80
2020/12/28 04:27:10;;;;;;;;;;;;;;;1.12;100.00;95376.25;5068811;28;19928;-81
2020/12/28 04:29:36;;;;;;;;;;;;;;;1.12;100.00;95387.25;5074463;28;20073;-80
2020/12/28 04:32:03;;;;;;;;;;;;;;;1.12;100.00;95390.00;5075455;28;19924;-80
2020/12/28 04:34:29;;;;;;;;;;;;;;;1.15;100.00;95397.34;5041292;28;19925;-80
2020/12/28 04:36:56;;;;;;;;;;;;;;;1.14;100.00;95406.03;5075591;28;19925;-81
2020/12/28 04:39:22;;;;;;;;;;;;;;;1.13;100.00;95408.03;5074113;28;20001;-80
2020/12/28 04:41:49;;;;;;;;;;;;;;;1.12;100.00;95406.47;5060051;28;19972;-81
2020/12/28 04:44:16;;;;;;;;;;;;;;;1.08;100.00;95419.59;5075385;28;20387;-80
2020/12/28 04:46:42;;;;;;;;;;;;;;;1.08;100.00;95414.09;5074403;28;19925;-80
2020/12/28 04:49:09;;;;;;;;;;;;;;;1.10;100.00;95422.69;5072636;28;19925;-80
2020/12/28 04:51:36;;;;;;;;;;;;;;;1.08;100.00;95419.59;5075304;28;19925;-80
2020/12/28 04:54:02;;;;;;;;;;;;;;;1.07;100.00;95422.81;5073983;28;19932;-80
2020/12/28 04:56:29;;;;;;;;;;;;;;;1.06;100.00;95419.28;5075105;28;19924;-80
2020/12/28 04:58:56;;;;;;;;;;;;;;;1.05;100.00;95430.72;5040734;28;19925;-81
2020/12/28 05:01:22;;;;;;;;;;;;;;;1.05;100.00;95434.25;5074961;28;19929;-80
2020/12/28 05:03:49;;;;;;;;;;;;;;;1.01;100.00;95435.59;5074919;28;19924;-80
2020/12/28 05:06:16;;;;;;;;;;;;;;;0.97;100.00;95432.97;5075021;28;19925;-80
2020/12/28 05:08:43;;;;;;;;;;;;;;;0.95;100.00;95443.66;5061192;28;20326;-80
2020/12/28 05:11:14;;;;;;;;;;;;;;;0.96;100.00;95450.66;5072261;28;19924;-80
2020/12/28 05:13:47;;;;;;;;;;;;;;;0.98;100.00;95444.72;5075161;28;20027;-80
2020/12/28 05:16:14;;;;;;;;;;;;;;;0.94;100.00;95453.09;5074793;28;19932;-80
2020/12/28 05:18:41;;;;;;;;;;;;;;;1.01;100.00;95458.34;5057256;28;19981;-80
2020/12/28 05:21:07;;;;;;;;;;;;;;;1.02;100.00;95459.88;5074454;28;19928;-80
2020/12/28 05:23:34;;;;;;;;;;;;;;;0.97;100.00;95462.44;5073117;28;19933;-80
2020/12/28 05:26:03;;;;;;;;;;;;;;;1.01;100.00;95474.84;5074829;28;19924;-80
2020/12/28 05:28:33;;;;;;;;;;;;;;;1.00;100.00;95478.78;5074581;28;19924;-81
2020/12/28 05:31:02;;;;;;;;;;;;;;;0.99;100.00;95480.00;5079560;28;19930;-80
2020/12/28 05:33:32;;;;;;;;;;;;;;;1.00;100.00;95489.78;5062911;28;20378;-80
2020/12/28 05:35:59;;;;;;;;;;;;;;;0.95;100.00;95487.63;5079318;28;19978;-79
2020/12/28 05:38:29;;;;;;;;;;;;;;;0.92;100.00;95483.03;5063371;28;19944;-79
2020/12/28 05:41:02;;;;;;;;;;;;;;;0.94;100.00;95485.31;5067638;28;19925;-81
2020/12/28 05:43:29;;;;;;;;;;;;;;;0.93;100.00;95487.28;5049259;28;20035;-80
2020/12/28 05:45:56;;;;;;;;;;;;;;;0.86;100.00;95490.31;5074503;28;19932;-80
2020/12/28 05:48:23;;;;;;;;;;;;;;;0.84;100.00;95486.44;5071540;28;20081;-81
2020/12/28 05:50:53;;;;;;;;;;;;;;;0.83;100.00;95488.44;5072938;28;20005;-81
2020/12/28 05:53:21;;;;;;;;;;;;;;;0.81;100.00;95506.56;5054949;28;19931;-81
2020/12/28 05:55:48;;;;;;;;;;;;;;;0.80;100.00;95514.06;5074190;28;20414;-81
2020/12/28 05:58:15;;;;;;;;;;;;;;;0.76;100.00;95507.91;5073854;28;19935;-81
2020/12/28 06:00:44;;;;;;;;;;;;;;;0.75;100.00;95509.13;5073773;28;19935;-81
2020/12/28 06:03:11;;;;;;;;;;;;;;;0.73;100.00;95503.31;5073740;28;19931;-81
2020/12/28 06:05:38;;;;;;;;;;;;;;;0.74;100.00;95521.34;5072736;28;20321;-81
2020/12/28 06:08:04;;;;;;;;;;;;;;;0.74;100.00;95520.56;5072327;28;19936;-81
2020/12/28 06:10:33;;;;;;;;;;;;;;;0.74;100.00;95526.06;5071191;28;19924;-81
2020/12/28 06:13:00;;;;;;;;;;;;;;;0.75;100.00;95524.84;5073624;28;19925;-81
2020/12/28 06:15:27;;;;;;;;;;;;;;;0.76;100.00;95529.88;5055761;28;19924;-81
2020/12/28 06:17:54;;;;;;;;;;;;;;;0.73;100.00;95541.75;5073985;28;19932;-81
2020/12/28 06:20:29;;;;;;;;;;;;;;;0.73;100.00;95546.47;5073310;28;19924;-81
2020/12/28 06:23:02;;;;;;;;;;;;;;;0.70;100.00;95555.59;5073640;28;19928;-81
2020/12/28 06:25:29;;;;;;;;;;;;;;;0.71;100.00;95557.16;5057106;28;19924;-81
2020/12/28 06:27:55;;;;;;;;;;;;;;;0.72;100.00;95564.97;5073851;28;19925;-81
2020/12/28 06:30:23;;;;;;;;;;;;;;;0.74;100.00;95565.28;5063613;28;19925;-81
2020/12/28 06:32:52;;;;;;;;;;;;;;;0.76;100.00;95562.84;5073641;28;19928;-81
2020/12/28 06:35:18;;;;;;;;;;;;;;;0.75;100.00;95569.56;5069732;28;19924;-81
2020/12/28 06:37:48;;;;;;;;;;;;;;;0.77;100.00;95583.66;5070198;28;19936;-81
2020/12/28 06:40:26;;;;;;;;;;;;;;;0.80;100.00;95591.00;5053873;28;19934;-81
2020/12/28 06:42:52;;;;;;;;;;;;;;;0.82;100.00;95599.56;5073068;28;20027;-81
2020/12/28 06:45:19;;;;;;;;;;;;;;;0.76;100.00;95595.06;5072256;28;20446;-80
2020/12/28 06:47:46;;;;;;;;;;;;;;;0.76;100.00;95609.56;5072865;28;19928;-81
2020/12/28 06:50:12;;;;;;;;;;;;;;;0.74;100.00;95613.97;5070300;28;19954;-80
2020/12/28 06:52:39;;;;;;;;;;;;;;;0.70;100.00;95605.84;5072886;28;19931;-80
2020/12/28 06:55:06;;;;;;;;;;;;;;;0.65;100.00;95620.13;5073132;28;19931;-80
2020/12/28 06:57:33;;;;;;;;;;;;;;;0.62;100.00;95623.75;5072788;28;20019;-80
2020/12/28 07:00:00;;;;;;;;;;;;;;;0.66;100.00;95635.41;5056420;28;19925;-80
2020/12/28 07:02:26;;;;;;;;;;;;;;;0.62;100.00;95653.97;5072211;28;19924;-81
2020/12/28 07:04:53;;;;;;;;;;;;;;;0.66;100.00;95648.38;5055442;28;19931;-80
2020/12/28 07:07:19;;;;;;;;;;;;;;;0.60;100.00;95659.16;5056184;28;20022;-80
2020/12/28 07:09:49;;;;;;;;;;;;;;;0.61;100.00;95662.66;5038855;28;19964;-79
2020/12/28 07:12:15;;;;;;;;;;;;;;;0.60;100.00;95664.66;5071973;28;19946;-79
2020/12/28 07:14:42;;;;;;;;;;;;;;;0.64;100.00;95667.25;5070125;28;19930;-78
2020/12/28 07:17:09;;;;;;;;;;;;;;;0.60;100.00;95681.13;5072806;28;19925;-79
2020/12/28 07:19:38;;;;;;;;;;;;;;;0.59;100.00;95679.56;5072789;28;19963;-76
2020/12/28 07:22:05;;;;;;;;;;;;;;;0.55;100.00;95686.38;5072577;28;20070;-80
2020/12/28 07:24:32;;;;;;;;;;;;;;;0.56;100.00;95690.69;5072471;28;19925;-80
2020/12/28 07:26:58;;;;;;;;;;;;;;;0.54;100.00;95699.38;5072656;28;19929;-80
2020/12/28 07:29:25;;;;;;;;;;;;;;;0.58;100.00;95710.22;5072328;28;20022;-80
2020/12/28 07:32:01;;;;;;;;;;;;;;;0.53;100.00;95714.28;5052420;28;19961;-79
2020/12/28 07:34:28;;;;;;;;;;;;;;;0.45;100.00;95718.47;5041472;28;19928;-80
2020/12/28 07:36:56;;;;;;;;;;;;;;;0.37;100.00;95722.63;5054887;28;19928;-80
2020/12/28 07:39:22;;;;;;;;;;;;;;;0.33;100.00;95727.47;5072168;28;19925;-80
2020/12/28 07:41:49;;;;;;;;;;;;;;;0.37;100.00;95739.09;5038180;28;19925;-80
2020/12/28 07:44:16;;;;;;;;;;;;;;;0.29;100.00;95737.75;5072159;28;19932;-79
2020/12/28 07:46:52;;;;;;;;;;;;;;;0.27;100.00;95742.16;5072675;28;19963;-79
2020/12/28 07:49:25;;;;;;;;;;;;;;;0.26;100.00;95757.09;5076114;28;19924;-79
2020/12/28 07:51:55;;;;;;;;;;;;;;;0.23;100.00;95768.94;5076734;28;20009;-80
2020/12/28 07:54:22;;;;;;;;;;;;;;;0.18;100.00;95786.72;5073702;28;20019;-79
2020/12/28 07:57:00;;;;;;;;;;;;;;;0.21;100.00;95790.56;5076560;28;19955;-80
2020/12/28 07:59:46;;;;;;;;;;;;;;;0.19;100.00;95803.94;5075861;28;19928;-80
2020/12/28 08:02:35;;;;;;;;;;;;;;;0.18;100.00;95807.91;5075958;28;20019;-79
2020/12/28 08:05:02;;;;;;;;;;;;;;;0.19;100.00;95820.41;5058577;28;19925;-79
2020/12/28 08:07:33;;;;;;;;;;;;;;;0.22;100.00;95825.81;5060682;28;19925;-80
2020/12/28 08:09:59;;;;;;;;;;;;;;;0.26;100.00;95836.72;5059632;28;19925;-79
2020/12/28 08:12:29;;;;;;;;;;;;;;;0.23;100.00;95843.06;5058374;28;19924;-79
2020/12/28 08:14:56;;;;;;;;;;;;;;;0.23;100.00;95849.31;5059189;28;19924;-79
2020/12/28 08:17:25;;;;;;;;;;;;;;;0.16;100.00;95860.50;5076186;28;20379;-79
2020/12/28 08:20:03;;;;;;;;;;;;;;;0.20;100.00;95858.41;5030213;28;19993;-80
2020/12/28 08:22:33;;;;;;;;;;;;;;;0.22;100.00;95864.25;5056659;28;19948;-80
2020/12/28 08:25:04;;;;;;;;;;;;;;;0.16;100.00;95871.47;5056606;28;20402;-79
2020/12/28 08:27:31;;;;;;;;;;;;;;;0.19;100.00;95876.09;5074726;28;20347;-80
2020/12/28 08:29:58;;;;;;;;;;;;;;;0.21;100.00;95883.91;5072038;28;20337;-80
2020/12/28 08:32:25;;;;;;;;;;;;;;;0.24;100.00;95894.81;5075847;28;20013;-77
2020/12/28 08:34:53;;;;;;;;;;;;;;;0.31;100.00;95897.34;5075200;28;19925;-81
2020/12/28 08:37:28;;;;;;;;;;;;;;;0.31;100.00;95907.56;5074239;28;19925;-80
2020/12/28 08:39:55;;;;;;;;;;;;;;;0.29;100.00;95902.50;5074377;28;19928;-80
2020/12/28 08:42:25;;;;;;;;;;;;;;;0.32;100.00;95906.38;5046041;28;19925;-80
2020/12/28 08:44:52;;;;;;;;;;;;;;;0.33;100.00;95911.44;5074715;28;20054;-80
2020/12/28 08:47:19;;;;;;;;;;;;;;;0.46;100.00;95928.72;5057808;28;19974;-80
2020/12/28 08:49:46;;;;;;;;;;;;;;;0.51;100.00;95925.47;5066931;28;19931;-82
2020/12/28 08:52:17;;;;;;;;;;;;;;;0.52;100.00;95924.25;5075623;28;20414;-83
2020/12/28 08:54:51;;;;;;;;;;;;;;;0.47;100.00;95927.53;5053090;28;19928;-88
2020/12/28 08:57:28;;;;;;;;;;;;;;;0.52;100.00;95927.00;5034976;28;19925;-89
2020/12/28 09:00:16;;;;;;;;;;;;;;;0.45;100.00;95931.91;5052092;28;19924;-89
2020/12/28 09:02:49;;;;;;;;;;;;;;;0.42;100.00;95935.53;5037595;28;19924;-88
2020/12/28 09:05:16;;;;;;;;;;;;;;;0.40;100.00;95935.97;5020808;28;19924;-90
2020/12/28 09:07:43;;;;;;;;;;;;;;;0.44;100.00;95935.88;5021009;28;20354;-90
2020/12/28 09:10:10;;;;;;;;;;;;;;;0.53;100.00;95942.28;5037411;28;19928;-89
2020/12/28 09:12:43;;;;;;;;;;;;;;;0.59;100.00;95948.03;5071790;28;20342;-90
2020/12/28 09:15:11;;;;;;;;;;;;;;;0.62;100.00;95958.91;5053861;28;19925;-86
2020/12/28 09:17:38;;;;;;;;;;;;;;;0.62;100.00;95961.66;5052781;28;20372;-87
2020/12/28 09:20:05;;;;;;;;;;;;;;;0.66;100.00;95967.84;5070845;28;19925;-85
2020/12/28 09:22:32;;;;;;;;;;;;;;;0.62;100.00;95964.41;5052922;28;19925;-86
2020/12/28 09:24:59;;;;;;;;;;;;;;;0.73;100.00;95981.38;5068815;28;20016;-85
2020/12/28 09:27:26;;;;;;;;;;;;;;;0.72;100.00;95979.06;5070181;28;19924;-84
2020/12/28 09:29:53;;;;;;;;;;;;;;;0.62;100.00;95978.13;5053007;28;19924;-87
2020/12/28 09:32:19;;;;;;;;;;;;;;;0.73;100.00;95995.13;5070079;28;19925;-87
2020/12/28 09:34:46;;;;;;;;;;;;;;;0.60;100.00;95988.81;5069418;28;19924;-85
2020/12/28 09:37:12;;;;;;;;;;;;;;;0.63;100.00;95995.41;5022809;28;19925;-85
2020/12/28 09:39:39;;;;;;;;;;;;;;;0.52;100.00;95987.44;5055034;28;19925;-84
2020/12/28 09:42:06;;;;;;;;;;;;;;;0.52;100.00;95992.94;5052766;28;19931;-84
2020/12/28 09:44:32;;;;;;;;;;;;;;;0.61;100.00;96012.31;5051306;28;19979;-84
2020/12/28 09:46:59;;;;;;;;;;;;;;;0.63;100.00;96014.63;5031435;28;19925;-83
2020/12/28 09:49:26;;;;;;;;;;;;;;;0.66;100.00;96020.03;5049217;28;20118;-84
2020/12/28 09:51:53;;;;;;;;;;;;;;;0.62;100.00;96029.59;5050489;28;20406;-83
2020/12/28 09:54:20;;;;;;;;;;;;;;;0.76;100.00;96034.72;5052415;28;19964;-83
2020/12/28 09:56:57;;;;;;;;;;;;;;;0.95;100.00;96044.81;5018190;28;19934;-83
2020/12/28 09:59:24;;;;;;;;;;;;;;;0.88;100.00;96036.75;4999549;28;19932;-84
2020/12/28 10:01:51;;;;;;;;;;;;;;;0.87;100.00;96035.97;5016332;28;19932;-83
2020/12/28 10:04:17;;;;;;;;;;;;;;;0.83;100.00;96038.06;5052777;28;20307;-83
2020/12/28 10:06:44;;;;;;;;;;;;;;;0.80;100.00;96040.88;5036635;28;19925;-85
2020/12/28 10:09:11;;;;;;;;;;;;;;;0.79;100.00;96053.84;5053286;28;20079;-84
2020/12/28 10:11:38;;;;;;;;;;;;;;;0.78;100.00;96077.03;5052640;28;20015;-84
2020/12/28 10:14:05;;;;;;;;;;;;;;;0.85;100.00;96090.59;5035861;28;19931;-81
2020/12/28 10:16:32;;;;;;;;;;;;;;;1.02;100.00;96114.13;5069418;28;19925;-83
2020/12/28 10:18:59;;;;;;;;;;;;;;;1.05;100.00;96112.47;5052637;28;19925;-83
2020/12/28 10:21:26;;;;;;;;;;;;;;;1.09;100.00;96119.44;5036374;28;20307;-84
2020/12/28 10:23:53;;;;;;;;;;;;;;;1.22;100.00;96128.53;5036088;28;20411;-84
2020/12/28 10:26:21;;;;;;;;;;;;;;;1.32;100.00;96132.97;5019668;28;19932;-84
2020/12/28 10:28:48;;;;;;;;;;;;;;;1.08;100.00;96115.16;5052570;28;19925;-84
2020/12/28 10:31:15;;;;;;;;;;;;;;;0.97;100.00;96102.88;5052021;28;19929;-84
2020/12/28 10:33:45;;;;;;;;;;;;;;;0.93;100.00;96094.72;5051943;28;19925;-83
2020/12/28 10:36:17;;;;;;;;;;;;;;;1.00;100.00;96094.53;5039173;28;19925;-82
2020/12/28 10:38:48;;;;;;;;;;;;;;;0.96;100.00;96093.84;5052431;28;19924;-84
2020/12/28 10:41:15;;;;;;;;;;;;;;;0.84;100.00;96082.78;5057675;28;19931;-84
2020/12/28 10:43:41;;;;;;;;;;;;;;;0.82;100.00;96074.97;5052267;28;20031;-81
2020/12/28 10:46:08;;;;;;;;;;;;;;;0.86;100.00;96083.91;5051482;28;20089;-78
2020/12/28 10:48:36;;;;;;;;;;;;;;;0.86;100.00;96077.63;5049514;28;19948;-79
2020/12/28 10:51:03;;;;;;;;;;;;;;;0.87;100.00;96074.47;5050528;28;20288;-77
2020/12/28 10:53:31;;;;;;;;;;;;;;;0.83;100.00;96079.28;5048439;28;19932;-77
2020/12/28 10:55:58;;;;;;;;;;;;;;;0.74;100.00;96065.38;5052441;28;20030;-78
2020/12/28 10:58:24;;;;;;;;;;;;;;;0.76;100.00;96068.44;5051092;28;19925;-77
2020/12/28 11:00:51;;;;;;;;;;;;;;;0.69;100.00;96073.34;5072540;28;20007;-77
2020/12/28 11:03:18;;;;;;;;;;;;;;;0.71;100.00;96071.72;5067896;28;20011;-78
2020/12/28 11:05:45;;;;;;;;;;;;;;;0.59;100.00;96057.91;5070215;28;20017;-79
2020/12/28 11:08:12;;;;;;;;;;;;;;;0.60;100.00;96071.22;5062402;28;20390;-79
2020/12/28 11:10:40;;;;;;;;;;;;;;;0.58;100.00;96064.59;5053676;28;19931;-80
2020/12/28 11:13:07;;;;;;;;;;;;;;;0.53;100.00;96065.88;5038307;28;20051;-80
2020/12/28 11:15:34;;;;;;;;;;;;;;;0.54;100.00;96067.44;5072034;28;19998;-79
2020/12/28 11:18:01;;;;;;;;;;;;;;;0.75;100.00;96088.91;5051915;28;19925;-78
2020/12/28 11:20:27;;;;;;;;;;;;;;;0.74;100.00;96081.88;5072308;28;20300;-78
2020/12/28 11:22:55;;;;;;;;;;;;;;;0.81;100.00;96081.69;5051620;28;19925;-77
2020/12/28 11:25:22;;;;;;;;;;;;;;;0.84;100.00;96082.78;5055360;28;19924;-78
2020/12/28 11:27:48;;;;;;;;;;;;;;;0.88;100.00;96095.22;5059064;28;19928;-78
2020/12/28 11:30:15;;;;;;;;;;;;;;;0.89;100.00;96105.03;5072154;28;19935;-79
2020/12/28 11:32:42;;;;;;;;;;;;;;;0.89;100.00;96098.75;5058930;28;19931;-78
2020/12/28 11:35:08;;;;;;;;;;;;;;;0.89;100.00;96094.03;5054554;28;19925;-81
2020/12/28 11:37:35;;;;;;;;;;;;;;;1.04;100.00;96110.94;5041852;28;20363;-77
2020/12/28 11:40:02;;;;;;;;;;;;;;;1.03;100.00;96115.66;5072066;28;20398;-77
2020/12/28 11:42:32;;;;;;;;;;;;;;;1.22;100.00;96122.25;5072489;28;19971;-78
2020/12/28 11:44:59;;;;;;;;;;;;;;;1.42;100.00;96131.91;5063109;28;19924;-77
2020/12/28 11:47:25;;;;;;;;;;;;;;;1.39;100.00;96137.53;5067891;28;19934;-78
2020/12/28 11:49:58;;;;;;;;;;;;;;;1.53;100.00;96143.41;5048600;28;19929;-79
2020/12/28 11:52:27;;;;;;;;;;;;;;;1.57;100.00;96138.59;5066182;28;20050;-78
2020/12/28 11:54:53;;;;;;;;;;;;;;;1.58;100.00;96137.38;5049410;28;19928;-78
2020/12/28 11:57:20;;;;;;;;;;;;;;;1.65;100.00;96139.19;5066833;28;20337;-77
2020/12/28 11:59:46;;;;;;;;;;;;;;;1.55;100.00;96132.75;5050799;28;19924;-78
2020/12/28 12:02:13;;;;;;;;;;;;;;;1.60;100.00;96134.19;5054542;28;20350;-78
2020/12/28 12:04:53;;;;;;;;;;;;;;;1.59;100.00;96127.91;5069378;28;19931;-77
2020/12/28 12:07:21;;;;;;;;;;;;;;;1.65;100.00;96139.94;5071672;28;20296;-77
2020/12/28 12:09:48;;;;;;;;;;;;;;;1.74;100.00;96134.56;5071291;28;19924;-77
2020/12/28 12:12:15;;;;;;;;;;;;;;;1.97;100.00;96143.78;5071978;28;20335;-79
2020/12/28 12:14:42;;;;;;;;;;;;;;;2.00;100.00;96140.16;5051731;28;19932;-78
2020/12/28 12:17:08;;;;;;;;;;;;;;;2.18;100.00;96145.91;5071459;28;19924;-78
2020/12/28 12:19:36;;;;;;;;;;;;;;;2.45;100.00;96162.81;5068160;28;19928;-78
2020/12/28 12:22:03;;;;;;;;;;;;;;;2.26;100.00;96133.47;5067622;28;19925;-78
2020/12/28 12:24:30;;;;;;;;;;;;;;;2.12;100.00;96112.63;5071443;28;19924;-77
2020/12/28 12:26:56;;;;;;;;;;;;;;;2.03;100.00;96100.72;5071955;28;19932;-77
2020/12/28 12:29:23;;;;;;;;;;;;;;;2.02;100.00;96090.91;5071971;28;19924;-78
2020/12/28 12:31:50;;;;;;;;;;;;;;;1.94;100.00;96089.59;5054223;28;19925;-80
2020/12/28 12:34:17;;;;;;;;;;;;;;;1.99;100.00;96086.28;5054803;28;20350;-81
2020/12/28 12:36:44;;;;;;;;;;;;;;;1.96;100.00;96076.13;5057215;28;19924;-81
2020/12/28 12:39:11;;;;;;;;;;;;;;;2.01;100.00;96078.34;5057473;28;19924;-80
2020/12/28 12:41:37;;;;;;;;;;;;;;;1.79;100.00;96059.72;5057129;28;19970;-80
2020/12/28 12:44:04;;;;;;;;;;;;;;;1.71;100.00;96060.38;5057040;28;20482;-79
2020/12/28 12:46:31;;;;;;;;;;;;;;;1.59;100.00;96042.59;5075197;28;19946;-78
2020/12/28 12:48:59;;;;;;;;;;;;;;;1.62;100.00;96043.72;5074916;28;19925;-80
2020/12/28 12:51:26;;;;;;;;;;;;;;;1.65;100.00;96043.59;5074858;28;19924;-80
2020/12/28 12:53:53;;;;;;;;;;;;;;;1.79;100.00;96056.19;5075222;28;19928;-80
2020/12/28 12:56:21;;;;;;;;;;;;;;;2.00;100.00;96068.56;5057032;28;19931;-80
2020/12/28 12:58:48;;;;;;;;;;;;;;;1.83;100.00;96063.13;5070115;28;19924;-78
2020/12/28 13:01:14;;;;;;;;;;;;;;;1.84;100.00;96063.91;5075678;28;19924;-79
2020/12/28 13:03:41;;;;;;;;;;;;;;;1.99;100.00;96067.00;5074707;28;20024;-79